sensor_id;sensor_type;location;lat;lon;timestamp;temperature;humidity
62575;DHT22;53112;45.602;11.904;2023-03-24T00:00:00;23.90;47.30
62575;DHT22;53112;45.602;11.904;2023-03-24T00:02:27;23.90;47.30
62575;DHT22;53112;45.602;11.904;2023-03-24T00:04:53;23.90;47.30
62575;DHT22;53112;45.602;11.904;2023-03-24T00:07:24;23.90;47.30
62575;DHT22;53112;45.602;11.904;2023-03-24T00:09:50;23.90;47.30
62575;DHT22;53112;45.602;11.904;2023-03-24T00:12:15;23.90;47.30
62575;DHT22;53112;45.602;11.904;2023-03-24T00:14:44;23.90;47.30
62575;DHT22;53112;45.602;11.904;2023-03-24T00:17:13;23.90;47.30
62575;DHT22;53112;45.602;11.904;2023-03-24T00:19:42;23.90;47.30
62575;DHT22;53112;45.602;11.904;2023-03-24T00:22:11;23.90;47.30
62575;DHT22;53112;45.602;11.904;2023-03-24T00:24:40;23.90;47.20
62575;DHT22;53112;45.602;11.904;2023-03-24T00:27:07;23.80;47.20
62575;DHT22;53112;45.602;11.904;2023-03-24T00:29:33;23.90;47.20
62575;DHT22;53112;45.602;11.904;2023-03-24T00:32:00;23.80;47.20
62575;DHT22;53112;45.602;11.904;2023-03-24T00:34:26;23.90;47.20
62575;DHT22;53112;45.602;11.904;2023-03-24T00:36:53;23.80;47.20
62575;DHT22;53112;45.602;11.904;2023-03-24T00:39:19;23.80;47.30
62575;DHT22;53112;45.602;11.904;2023-03-24T00:41:47;23.80;47.20
62575;DHT22;53112;45.602;11.904;2023-03-24T00:44:16;23.80;47.20
62575;DHT22;53112;45.602;11.904;2023-03-24T00:46:50;23.80;47.20
62575;DHT22;53112;45.602;11.904;2023-03-24T00:49:30;23.80;47.30
62575;DHT22;53112;45.602;11.904;2023-03-24T00:52:17;23.80;47.20
62575;DHT22;53112;45.602;11.904;2023-03-24T00:54:46;23.80;47.30
62575;DHT22;53112;45.602;11.904;2023-03-24T00:57:14;23.70;47.30
62575;DHT22;53112;45.602;11.904;2023-03-24T00:59:48;23.80;47.20
62575;DHT22;53112;45.602;11.904;2023-03-24T01:02:19;23.80;47.30
62575;DHT22;53112;45.602;11.904;2023-03-24T01:04:52;23.80;47.20
62575;DHT22;53112;45.602;11.904;2023-03-24T01:07:20;23.80;47.20
62575;DHT22;53112;45.602;11.904;2023-03-24T01:09:46;23.80;47.20
62575;DHT22;53112;45.602;11.904;2023-03-24T01:12:18;23.80;47.20
62575;DHT22;53112;45.602;11.904;2023-03-24T01:14:44;23.80;47.20
62575;DHT22;53112;45.602;11.904;2023-03-24T01:17:11;23.70;47.30
62575;DHT22;53112;45.602;11.904;2023-03-24T01:19:37;23.70;47.40
62575;DHT22;53112;45.602;11.904;2023-03-24T01:22:05;23.70;47.30
62575;DHT22;53112;45.602;11.904;2023-03-24T01:24:31;23.70;47.20
62575;DHT22;53112;45.602;11.904;2023-03-24T01:26:58;23.70;47.30
62575;DHT22;53112;45.602;11.904;2023-03-24T01:29:24;23.70;47.20
62575;DHT22;53112;45.602;11.904;2023-03-24T01:31:50;23.70;47.30
62575;DHT22;53112;45.602;11.904;2023-03-24T01:34:16;23.70;47.20
62575;DHT22;53112;45.602;11.904;2023-03-24T01:36:42;23.70;47.20
62575;DHT22;53112;45.602;11.904;2023-03-24T01:39:08;23.70;47.30
62575;DHT22;53112;45.602;11.904;2023-03-24T01:41:37;23.70;47.20
62575;DHT22;53112;45.602;11.904;2023-03-24T01:44:35;23.70;47.20
62575;DHT22;53112;45.602;11.904;2023-03-24T01:47:04;23.70;47.30
62575;DHT22;53112;45.602;11.904;2023-03-24T01:49:45;23.70;47.30
62575;DHT22;53112;45.602;11.904;2023-03-24T01:52:22;23.70;47.30
62575;DHT22;53112;45.602;11.904;2023-03-24T01:55:12;23.70;47.30
62575;DHT22;53112;45.602;11.904;2023-03-24T01:57:52;23.70;47.30
62575;DHT22;53112;45.602;11.904;2023-03-24T02:00:19;23.60;47.40
62575;DHT22;53112;45.602;11.904;2023-03-24T02:02:55;23.70;47.40
62575;DHT22;53112;45.602;11.904;2023-03-24T02:05:27;23.70;47.30
62575;DHT22;53112;45.602;11.904;2023-03-24T02:10:37;23.60;47.40
62575;DHT22;53112;45.602;11.904;2023-03-24T02:13:04;23.60;47.40
62575;DHT22;53112;45.602;11.904;2023-03-24T02:41:03;23.60;47.40
62575;DHT22;53112;45.602;11.904;2023-03-24T02:55:08;23.70;47.10
62575;DHT22;53112;45.602;11.904;2023-03-24T02:57:41;23.70;47.00
62575;DHT22;53112;45.602;11.904;2023-03-24T03:00:31;23.70;47.00
62575;DHT22;53112;45.602;11.904;2023-03-24T03:03:15;23.70;47.00
62575;DHT22;53112;45.602;11.904;2023-03-24T03:05:58;23.80;47.00
62575;DHT22;53112;45.602;11.904;2023-03-24T03:08:28;23.70;47.00
62575;DHT22;53112;45.602;11.904;2023-03-24T03:10:57;23.70;47.00
62575;DHT22;53112;45.602;11.904;2023-03-24T03:16:17;23.60;47.30
62575;DHT22;53112;45.602;11.904;2023-03-24T03:18:58;23.60;47.20
62575;DHT22;53112;45.602;11.904;2023-03-24T03:21:31;23.70;47.10
62575;DHT22;53112;45.602;11.904;2023-03-24T03:24:07;23.70;47.00
62575;DHT22;53112;45.602;11.904;2023-03-24T03:26:35;23.70;47.00
62575;DHT22;53112;45.602;11.904;2023-03-24T03:29:14;23.70;47.00
62575;DHT22;53112;45.602;11.904;2023-03-24T03:32:06;23.70;47.00
62575;DHT22;53112;45.602;11.904;2023-03-24T03:40:04;23.70;47.10
62575;DHT22;53112;45.602;11.904;2023-03-24T03:42:34;23.70;47.00
62575;DHT22;53112;45.602;11.904;2023-03-24T03:45:01;23.70;47.10
62575;DHT22;53112;45.602;11.904;2023-03-24T03:47:27;23.60;47.10
62575;DHT22;53112;45.602;11.904;2023-03-24T03:49:53;23.70;47.10
62575;DHT22;53112;45.602;11.904;2023-03-24T03:52:19;23.60;47.10
62575;DHT22;53112;45.602;11.904;2023-03-24T03:54:46;23.60;47.10
62575;DHT22;53112;45.602;11.904;2023-03-24T03:57:12;23.60;47.20
62575;DHT22;53112;45.602;11.904;2023-03-24T03:59:39;23.60;47.20
62575;DHT22;53112;45.602;11.904;2023-03-24T04:10:35;23.60;47.10
62575;DHT22;53112;45.602;11.904;2023-03-24T04:16:24;23.60;47.20
62575;DHT22;53112;45.602;11.904;2023-03-24T04:21:24;23.50;47.20
62575;DHT22;53112;45.602;11.904;2023-03-24T04:25:04;23.50;47.30
62575;DHT22;53112;45.602;11.904;2023-03-24T04:27:26;23.60;47.30
62575;DHT22;53112;45.602;11.904;2023-03-24T04:35:45;23.50;47.20
62575;DHT22;53112;45.602;11.904;2023-03-24T04:38:18;23.50;47.20
62575;DHT22;53112;45.602;11.904;2023-03-24T04:40:52;23.50;47.20
62575;DHT22;53112;45.602;11.904;2023-03-24T04:43:24;23.50;47.20
62575;DHT22;53112;45.602;11.904;2023-03-24T04:45:52;23.50;47.20
62575;DHT22;53112;45.602;11.904;2023-03-24T04:48:23;23.50;47.20
62575;DHT22;53112;45.602;11.904;2023-03-24T04:50:58;23.50;47.20
62575;DHT22;53112;45.602;11.904;2023-03-24T04:53:25;23.50;47.20
62575;DHT22;53112;45.602;11.904;2023-03-24T04:58:38;23.50;47.30
62575;DHT22;53112;45.602;11.904;2023-03-24T05:01:04;23.50;47.30
62575;DHT22;53112;45.602;11.904;2023-03-24T05:03:31;23.50;47.20
62575;DHT22;53112;45.602;11.904;2023-03-24T05:05:56;23.50;47.30
62575;DHT22;53112;45.602;11.904;2023-03-24T05:08:23;23.50;47.20
62575;DHT22;53112;45.602;11.904;2023-03-24T05:10:49;23.50;47.20
62575;DHT22;53112;45.602;11.904;2023-03-24T05:13:15;23.50;47.30
62575;DHT22;53112;45.602;11.904;2023-03-24T05:15:41;23.50;47.30
62575;DHT22;53112;45.602;11.904;2023-03-24T05:18:07;23.50;47.30
62575;DHT22;53112;45.602;11.904;2023-03-24T05:20:33;23.50;47.30
62575;DHT22;53112;45.602;11.904;2023-03-24T05:22:59;23.50;47.20
62575;DHT22;53112;45.602;11.904;2023-03-24T05:25:26;23.50;47.30
62575;DHT22;53112;45.602;11.904;2023-03-24T05:27:52;23.40;47.20
62575;DHT22;53112;45.602;11.904;2023-03-24T05:30:18;23.50;47.30
62575;DHT22;53112;45.602;11.904;2023-03-24T05:32:45;23.50;47.20
62575;DHT22;53112;45.602;11.904;2023-03-24T05:35:10;23.50;47.20
62575;DHT22;53112;45.602;11.904;2023-03-24T05:37:36;23.40;47.20
62575;DHT22;53112;45.602;11.904;2023-03-24T05:40:02;23.40;47.20
62575;DHT22;53112;45.602;11.904;2023-03-24T05:42:28;23.50;47.20
62575;DHT22;53112;45.602;11.904;2023-03-24T05:44:54;23.50;47.20
62575;DHT22;53112;45.602;11.904;2023-03-24T05:47:20;23.50;47.20
62575;DHT22;53112;45.602;11.904;2023-03-24T05:49:46;23.50;47.20
62575;DHT22;53112;45.602;11.904;2023-03-24T05:52:12;23.50;47.20
62575;DHT22;53112;45.602;11.904;2023-03-24T05:54:41;23.50;47.10
62575;DHT22;53112;45.602;11.904;2023-03-24T05:57:14;23.60;47.10
62575;DHT22;53112;45.602;11.904;2023-03-24T05:59:41;23.60;47.00
62575;DHT22;53112;45.602;11.904;2023-03-24T06:02:07;23.60;47.00
62575;DHT22;53112;45.602;11.904;2023-03-24T06:04:33;23.60;47.00
62575;DHT22;53112;45.602;11.904;2023-03-24T06:06:59;23.60;46.90
62575;DHT22;53112;45.602;11.904;2023-03-24T06:09:26;23.60;46.90
62575;DHT22;53112;45.602;11.904;2023-03-24T06:12:03;23.70;46.90
62575;DHT22;53112;45.602;11.904;2023-03-24T06:14:30;23.60;46.90
62575;DHT22;53112;45.602;11.904;2023-03-24T06:16:56;23.60;46.90
62575;DHT22;53112;45.602;11.904;2023-03-24T06:19:24;23.70;46.90
62575;DHT22;53112;45.602;11.904;2023-03-24T06:21:52;23.70;46.90
62575;DHT22;53112;45.602;11.904;2023-03-24T06:24:19;23.70;46.90
62575;DHT22;53112;45.602;11.904;2023-03-24T06:26:45;23.70;46.90
62575;DHT22;53112;45.602;11.904;2023-03-24T06:29:15;23.70;46.80
62575;DHT22;53112;45.602;11.904;2023-03-24T06:31:46;23.80;46.80
62575;DHT22;53112;45.602;11.904;2023-03-24T06:34:12;23.70;46.70
62575;DHT22;53112;45.602;11.904;2023-03-24T06:36:38;23.80;46.70
62575;DHT22;53112;45.602;11.904;2023-03-24T06:39:05;23.80;46.50
62575;DHT22;53112;45.602;11.904;2023-03-24T06:41:32;23.80;46.50
62575;DHT22;53112;45.602;11.904;2023-03-24T06:43:58;23.90;46.40
62575;DHT22;53112;45.602;11.904;2023-03-24T06:46:25;23.90;46.50
62575;DHT22;53112;45.602;11.904;2023-03-24T06:48:51;24.00;46.50
62575;DHT22;53112;45.602;11.904;2023-03-24T06:51:17;24.00;46.50
62575;DHT22;53112;45.602;11.904;2023-03-24T06:53:43;24.00;46.50
62575;DHT22;53112;45.602;11.904;2023-03-24T06:56:10;24.10;46.60
62575;DHT22;53112;45.602;11.904;2023-03-24T06:58:42;24.10;46.50
62575;DHT22;53112;45.602;11.904;2023-03-24T07:01:08;24.10;46.50
62575;DHT22;53112;45.602;11.904;2023-03-24T07:03:34;24.10;46.60
62575;DHT22;53112;45.602;11.904;2023-03-24T07:06:00;24.10;47.00
62575;DHT22;53112;45.602;11.904;2023-03-24T07:08:26;24.10;47.00
62575;DHT22;53112;45.602;11.904;2023-03-24T07:10:52;24.10;47.40
62575;DHT22;53112;45.602;11.904;2023-03-24T07:13:18;24.10;47.60
62575;DHT22;53112;45.602;11.904;2023-03-24T07:15:44;24.10;47.60
62575;DHT22;53112;45.602;11.904;2023-03-24T07:18:10;24.20;47.60
62575;DHT22;53112;45.602;11.904;2023-03-24T07:20:38;24.20;47.60
62575;DHT22;53112;45.602;11.904;2023-03-24T07:23:05;24.40;47.40
62575;DHT22;53112;45.602;11.904;2023-03-24T07:25:31;24.50;47.30
62575;DHT22;53112;45.602;11.904;2023-03-24T07:27:59;24.60;47.10
62575;DHT22;53112;45.602;11.904;2023-03-24T07:30:26;24.60;47.10
62575;DHT22;53112;45.602;11.904;2023-03-24T07:32:55;24.60;46.90
62575;DHT22;53112;45.602;11.904;2023-03-24T07:35:21;24.70;46.60
62575;DHT22;53112;45.602;11.904;2023-03-24T07:37:47;24.70;46.60
62575;DHT22;53112;45.602;11.904;2023-03-24T07:40:14;24.70;46.50
62575;DHT22;53112;45.602;11.904;2023-03-24T07:42:41;24.70;46.70
62575;DHT22;53112;45.602;11.904;2023-03-24T07:45:11;24.70;46.70
62575;DHT22;53112;45.602;11.904;2023-03-24T07:47:38;24.70;46.70
62575;DHT22;53112;45.602;11.904;2023-03-24T07:50:05;24.70;46.80
62575;DHT22;53112;45.602;11.904;2023-03-24T07:52:41;24.70;46.80
62575;DHT22;53112;45.602;11.904;2023-03-24T07:55:10;24.70;46.60
62575;DHT22;53112;45.602;11.904;2023-03-24T07:57:39;24.70;46.60
62575;DHT22;53112;45.602;11.904;2023-03-24T08:00:06;24.70;46.60
62575;DHT22;53112;45.602;11.904;2023-03-24T08:02:40;24.70;46.50
62575;DHT22;53112;45.602;11.904;2023-03-24T08:05:07;24.70;46.50
62575;DHT22;53112;45.602;11.904;2023-03-24T08:07:35;24.70;46.50
62575;DHT22;53112;45.602;11.904;2023-03-24T08:10:02;24.70;46.50
62575;DHT22;53112;45.602;11.904;2023-03-24T08:12:31;24.70;46.50
62575;DHT22;53112;45.602;11.904;2023-03-24T08:14:57;24.70;46.50
62575;DHT22;53112;45.602;11.904;2023-03-24T08:17:22;24.70;46.50
62575;DHT22;53112;45.602;11.904;2023-03-24T08:19:48;24.60;46.50
62575;DHT22;53112;45.602;11.904;2023-03-24T08:22:14;24.60;46.50
62575;DHT22;53112;45.602;11.904;2023-03-24T08:24:40;24.60;46.50
62575;DHT22;53112;45.602;11.904;2023-03-24T08:27:06;24.60;46.50
62575;DHT22;53112;45.602;11.904;2023-03-24T08:29:33;24.60;46.50
62575;DHT22;53112;45.602;11.904;2023-03-24T08:32:00;24.60;46.40
62575;DHT22;53112;45.602;11.904;2023-03-24T08:34:27;24.60;46.50
62575;DHT22;53112;45.602;11.904;2023-03-24T08:36:53;24.60;46.50
62575;DHT22;53112;45.602;11.904;2023-03-24T08:39:19;24.60;46.40
62575;DHT22;53112;45.602;11.904;2023-03-24T08:41:45;24.50;46.40
62575;DHT22;53112;45.602;11.904;2023-03-24T08:44:15;24.50;46.40
62575;DHT22;53112;45.602;11.904;2023-03-24T08:46:41;24.50;46.30
62575;DHT22;53112;45.602;11.904;2023-03-24T08:49:07;24.50;46.40
62575;DHT22;53112;45.602;11.904;2023-03-24T08:51:34;24.50;46.50
62575;DHT22;53112;45.602;11.904;2023-03-24T08:54:00;24.50;46.60
62575;DHT22;53112;45.602;11.904;2023-03-24T08:56:26;24.50;46.60
62575;DHT22;53112;45.602;11.904;2023-03-24T08:58:52;24.50;46.60
62575;DHT22;53112;45.602;11.904;2023-03-24T09:01:21;24.50;46.50
62575;DHT22;53112;45.602;11.904;2023-03-24T09:03:47;24.50;46.60
62575;DHT22;53112;45.602;11.904;2023-03-24T09:06:14;24.40;46.60
62575;DHT22;53112;45.602;11.904;2023-03-24T09:08:40;24.40;46.40
62575;DHT22;53112;45.602;11.904;2023-03-24T09:11:11;24.40;46.30
62575;DHT22;53112;45.602;11.904;2023-03-24T09:13:37;24.40;46.40
62575;DHT22;53112;45.602;11.904;2023-03-24T09:16:04;24.40;46.40
62575;DHT22;53112;45.602;11.904;2023-03-24T09:18:30;24.40;46.30
62575;DHT22;53112;45.602;11.904;2023-03-24T09:20:56;24.40;46.60
62575;DHT22;53112;45.602;11.904;2023-03-24T09:23:22;24.40;46.60
62575;DHT22;53112;45.602;11.904;2023-03-24T09:25:52;24.40;46.70
62575;DHT22;53112;45.602;11.904;2023-03-24T09:28:21;24.40;46.70
62575;DHT22;53112;45.602;11.904;2023-03-24T09:30:47;24.40;46.70
62575;DHT22;53112;45.602;11.904;2023-03-24T09:33:13;24.40;46.70
62575;DHT22;53112;45.602;11.904;2023-03-24T09:35:39;24.40;46.70
62575;DHT22;53112;45.602;11.904;2023-03-24T09:38:05;24.40;46.70
62575;DHT22;53112;45.602;11.904;2023-03-24T09:40:36;24.30;46.70
62575;DHT22;53112;45.602;11.904;2023-03-24T09:45:48;24.40;46.70
62575;DHT22;53112;45.602;11.904;2023-03-24T09:56:17;24.40;46.60
62575;DHT22;53112;45.602;11.904;2023-03-24T09:58:47;24.40;46.60
62575;DHT22;53112;45.602;11.904;2023-03-24T10:01:16;24.40;46.60
62575;DHT22;53112;45.602;11.904;2023-03-24T10:03:43;24.40;46.60
62575;DHT22;53112;45.602;11.904;2023-03-24T10:09:24;24.40;46.60
62575;DHT22;53112;45.602;11.904;2023-03-24T10:20:19;24.30;46.60
62575;DHT22;53112;45.602;11.904;2023-03-24T10:28:19;24.40;46.60
62575;DHT22;53112;45.602;11.904;2023-03-24T10:30:50;24.40;46.50
62575;DHT22;53112;45.602;11.904;2023-03-24T10:33:17;24.30;46.50
62575;DHT22;53112;45.602;11.904;2023-03-24T10:38:34;24.40;46.50
62575;DHT22;53112;45.602;11.904;2023-03-24T10:41:00;24.30;46.50
62575;DHT22;53112;45.602;11.904;2023-03-24T10:43:28;24.40;46.50
62575;DHT22;53112;45.602;11.904;2023-03-24T10:45:56;24.40;46.50
62575;DHT22;53112;45.602;11.904;2023-03-24T10:48:45;24.40;46.60
62575;DHT22;53112;45.602;11.904;2023-03-24T10:53:41;24.40;46.70
62575;DHT22;53112;45.602;11.904;2023-03-24T10:56:11;24.30;46.60
62575;DHT22;53112;45.602;11.904;2023-03-24T10:58:40;24.40;46.60
62575;DHT22;53112;45.602;11.904;2023-03-24T11:01:28;24.40;46.60
62575;DHT22;53112;45.602;11.904;2023-03-24T11:04:03;24.40;46.70
62575;DHT22;53112;45.602;11.904;2023-03-24T11:06:30;24.40;46.70
62575;DHT22;53112;45.602;11.904;2023-03-24T11:09:18;24.40;46.70
62575;DHT22;53112;45.602;11.904;2023-03-24T11:11:45;24.40;46.80
62575;DHT22;53112;45.602;11.904;2023-03-24T11:14:24;24.50;46.80
62575;DHT22;53112;45.602;11.904;2023-03-24T11:16:52;24.50;46.90
62575;DHT22;53112;45.602;11.904;2023-03-24T11:19:24;24.50;46.80
62575;DHT22;53112;45.602;11.904;2023-03-24T11:21:58;24.60;46.90
62575;DHT22;53112;45.602;11.904;2023-03-24T11:24:26;24.60;46.70
62575;DHT22;53112;45.602;11.904;2023-03-24T11:26:59;24.60;46.50
62575;DHT22;53112;45.602;11.904;2023-03-24T11:29:28;24.60;46.40
62575;DHT22;53112;45.602;11.904;2023-03-24T11:32:01;24.70;46.40
62575;DHT22;53112;45.602;11.904;2023-03-24T11:34:34;24.70;46.60
62575;DHT22;53112;45.602;11.904;2023-03-24T11:37:25;24.70;46.30
62575;DHT22;53112;45.602;11.904;2023-03-24T11:42:57;24.70;46.30
62575;DHT22;53112;45.602;11.904;2023-03-24T11:45:43;24.70;46.40
62575;DHT22;53112;45.602;11.904;2023-03-24T11:48:32;24.70;45.40
62575;DHT22;53112;45.602;11.904;2023-03-24T11:51:03;24.70;45.90
62575;DHT22;53112;45.602;11.904;2023-03-24T11:53:40;24.70;45.90
62575;DHT22;53112;45.602;11.904;2023-03-24T11:58:51;24.70;45.90
62575;DHT22;53112;45.602;11.904;2023-03-24T12:04:28;24.70;46.30
62575;DHT22;53112;45.602;11.904;2023-03-24T12:13:04;24.80;45.60
62575;DHT22;53112;45.602;11.904;2023-03-24T12:15:39;24.80;46.10
62575;DHT22;53112;45.602;11.904;2023-03-24T12:26:19;24.80;46.30
62575;DHT22;53112;45.602;11.904;2023-03-24T12:37:17;24.80;46.10
62575;DHT22;53112;45.602;11.904;2023-03-24T12:42:55;24.80;45.60
62575;DHT22;53112;45.602;11.904;2023-03-24T12:48:11;24.80;45.60
62575;DHT22;53112;45.602;11.904;2023-03-24T12:56:35;24.80;45.50
62575;DHT22;53112;45.602;11.904;2023-03-24T12:59:22;24.80;45.90
62575;DHT22;53112;45.602;11.904;2023-03-24T13:04:39;24.80;45.70
62575;DHT22;53112;45.602;11.904;2023-03-24T13:07:11;24.80;45.90
62575;DHT22;53112;45.602;11.904;2023-03-24T13:13:01;24.80;46.10
62575;DHT22;53112;45.602;11.904;2023-03-24T13:15:47;24.80;46.20
62575;DHT22;53112;45.602;11.904;2023-03-24T13:21:17;24.80;45.70
62575;DHT22;53112;45.602;11.904;2023-03-24T13:23:59;24.80;45.70
62575;DHT22;53112;45.602;11.904;2023-03-24T13:29:48;24.80;46.00
62575;DHT22;53112;45.602;11.904;2023-03-24T13:32:22;24.70;45.90
62575;DHT22;53112;45.602;11.904;2023-03-24T13:35:00;24.70;46.00
62575;DHT22;53112;45.602;11.904;2023-03-24T13:37:34;24.70;45.70
62575;DHT22;53112;45.602;11.904;2023-03-24T13:40:06;24.70;45.60
62575;DHT22;53112;45.602;11.904;2023-03-24T13:42:44;24.70;45.80
62575;DHT22;53112;45.602;11.904;2023-03-24T13:45:45;24.70;45.70
62575;DHT22;53112;45.602;11.904;2023-03-24T13:50:40;24.70;45.80
62575;DHT22;53112;45.602;11.904;2023-03-24T13:53:13;24.70;45.90
62575;DHT22;53112;45.602;11.904;2023-03-24T13:55:51;24.70;45.70
62575;DHT22;53112;45.602;11.904;2023-03-24T13:58:21;24.70;45.30
62575;DHT22;53112;45.602;11.904;2023-03-24T14:01:28;24.60;45.60
62575;DHT22;53112;45.602;11.904;2023-03-24T14:06:51;24.60;45.60
62575;DHT22;53112;45.602;11.904;2023-03-24T14:09:26;24.60;45.80
62575;DHT22;53112;45.602;11.904;2023-03-24T14:14:27;24.70;46.00
62575;DHT22;53112;45.602;11.904;2023-03-24T14:17:13;24.60;45.70
62575;DHT22;53112;45.602;11.904;2023-03-24T14:22:40;24.70;45.60
62575;DHT22;53112;45.602;11.904;2023-03-24T14:27:44;24.70;45.90
62575;DHT22;53112;45.602;11.904;2023-03-24T14:32:46;24.70;46.00
62575;DHT22;53112;45.602;11.904;2023-03-24T14:38:04;24.70;46.10
62575;DHT22;53112;45.602;11.904;2023-03-24T14:40:44;24.70;46.00
62575;DHT22;53112;45.602;11.904;2023-03-24T14:43:31;24.70;45.90
62575;DHT22;53112;45.602;11.904;2023-03-24T14:54:41;24.70;45.90
62575;DHT22;53112;45.602;11.904;2023-03-24T14:57:30;24.70;45.90
62575;DHT22;53112;45.602;11.904;2023-03-24T15:00:12;24.70;45.50
62575;DHT22;53112;45.602;11.904;2023-03-24T15:02:46;24.70;45.70
62575;DHT22;53112;45.602;11.904;2023-03-24T15:07:42;24.60;45.90
62575;DHT22;53112;45.602;11.904;2023-03-24T15:10:16;24.60;46.00
62575;DHT22;53112;45.602;11.904;2023-03-24T15:12:46;24.60;45.80
62575;DHT22;53112;45.602;11.904;2023-03-24T15:15:23;24.60;46.00
62575;DHT22;53112;45.602;11.904;2023-03-24T15:17:50;24.60;46.10
62575;DHT22;53112;45.602;11.904;2023-03-24T15:20:32;24.60;46.10
62575;DHT22;53112;45.602;11.904;2023-03-24T15:23:06;24.70;46.10
62575;DHT22;53112;45.602;11.904;2023-03-24T15:25:32;24.70;46.00
62575;DHT22;53112;45.602;11.904;2023-03-24T15:27:58;24.60;46.10
62575;DHT22;53112;45.602;11.904;2023-03-24T15:30:25;24.60;46.00
62575;DHT22;53112;45.602;11.904;2023-03-24T15:32:52;24.60;45.80
62575;DHT22;53112;45.602;11.904;2023-03-24T15:35:23;24.70;45.80
62575;DHT22;53112;45.602;11.904;2023-03-24T15:37:52;24.60;45.90
62575;DHT22;53112;45.602;11.904;2023-03-24T15:43:02;24.60;45.70
62575;DHT22;53112;45.602;11.904;2023-03-24T15:45:33;24.60;45.90
62575;DHT22;53112;45.602;11.904;2023-03-24T15:48:07;24.60;45.80
62575;DHT22;53112;45.602;11.904;2023-03-24T15:50:37;24.60;45.70
62575;DHT22;53112;45.602;11.904;2023-03-24T15:56:29;24.60;45.90
62575;DHT22;53112;45.602;11.904;2023-03-24T15:59:11;24.60;46.10
62575;DHT22;53112;45.602;11.904;2023-03-24T16:01:39;24.60;46.10
62575;DHT22;53112;45.602;11.904;2023-03-24T16:04:11;24.60;46.10
62575;DHT22;53112;45.602;11.904;2023-03-24T16:06:41;24.60;46.10
62575;DHT22;53112;45.602;11.904;2023-03-24T16:09:12;24.60;46.00
62575;DHT22;53112;45.602;11.904;2023-03-24T16:11:39;24.60;45.90
62575;DHT22;53112;45.602;11.904;2023-03-24T16:14:32;24.60;46.10
62575;DHT22;53112;45.602;11.904;2023-03-24T16:17:01;24.60;46.00
62575;DHT22;53112;45.602;11.904;2023-03-24T16:19:28;24.60;45.90
62575;DHT22;53112;45.602;11.904;2023-03-24T16:21:54;24.60;45.90
62575;DHT22;53112;45.602;11.904;2023-03-24T16:24:21;24.60;46.10
62575;DHT22;53112;45.602;11.904;2023-03-24T16:26:47;24.60;46.00
62575;DHT22;53112;45.602;11.904;2023-03-24T16:29:17;24.60;46.10
62575;DHT22;53112;45.602;11.904;2023-03-24T16:31:47;24.60;46.10
62575;DHT22;53112;45.602;11.904;2023-03-24T16:34:18;24.60;46.20
62575;DHT22;53112;45.602;11.904;2023-03-24T16:36:46;24.60;46.20
62575;DHT22;53112;45.602;11.904;2023-03-24T16:39:15;24.60;46.20
62575;DHT22;53112;45.602;11.904;2023-03-24T16:41:42;24.60;46.20
62575;DHT22;53112;45.602;11.904;2023-03-24T16:44:08;24.50;45.90
62575;DHT22;53112;45.602;11.904;2023-03-24T16:46:36;24.50;45.80
62575;DHT22;53112;45.602;11.904;2023-03-24T16:49:04;24.50;46.00
62575;DHT22;53112;45.602;11.904;2023-03-24T16:51:31;24.50;45.80
62575;DHT22;53112;45.602;11.904;2023-03-24T16:53:57;24.50;46.10
62575;DHT22;53112;45.602;11.904;2023-03-24T16:56:24;24.50;45.80
62575;DHT22;53112;45.602;11.904;2023-03-24T16:58:51;24.50;45.80
62575;DHT22;53112;45.602;11.904;2023-03-24T17:01:27;24.50;45.90
62575;DHT22;53112;45.602;11.904;2023-03-24T17:04:02;24.50;45.60
62575;DHT22;53112;45.602;11.904;2023-03-24T17:06:31;24.50;45.70
62575;DHT22;53112;45.602;11.904;2023-03-24T17:08:58;24.50;45.70
62575;DHT22;53112;45.602;11.904;2023-03-24T17:11:45;24.40;45.60
62575;DHT22;53112;45.602;11.904;2023-03-24T17:14:12;24.40;45.20
62575;DHT22;53112;45.602;11.904;2023-03-24T17:16:40;24.40;45.70
62575;DHT22;53112;45.602;11.904;2023-03-24T17:19:09;24.40;45.80
62575;DHT22;53112;45.602;11.904;2023-03-24T17:21:43;24.40;45.90
62575;DHT22;53112;45.602;11.904;2023-03-24T17:24:10;24.40;46.00
62575;DHT22;53112;45.602;11.904;2023-03-24T17:26:39;24.40;45.90
62575;DHT22;53112;45.602;11.904;2023-03-24T17:29:05;24.40;45.90
62575;DHT22;53112;45.602;11.904;2023-03-24T17:31:32;24.40;46.00
62575;DHT22;53112;45.602;11.904;2023-03-24T17:33:58;24.40;46.10
62575;DHT22;53112;45.602;11.904;2023-03-24T17:36:24;24.40;46.20
62575;DHT22;53112;45.602;11.904;2023-03-24T17:38:50;24.40;46.20
62575;DHT22;53112;45.602;11.904;2023-03-24T17:41:16;24.40;46.20
62575;DHT22;53112;45.602;11.904;2023-03-24T17:43:44;24.40;46.20
62575;DHT22;53112;45.602;11.904;2023-03-24T17:46:11;24.40;46.20
62575;DHT22;53112;45.602;11.904;2023-03-24T17:48:37;24.40;46.20
62575;DHT22;53112;45.602;11.904;2023-03-24T17:51:04;24.40;46.30
62575;DHT22;53112;45.602;11.904;2023-03-24T17:53:30;24.40;46.30
62575;DHT22;53112;45.602;11.904;2023-03-24T17:56:00;24.40;46.30
62575;DHT22;53112;45.602;11.904;2023-03-24T17:58:32;24.40;46.40
62575;DHT22;53112;45.602;11.904;2023-03-24T18:00:59;24.40;46.40
62575;DHT22;53112;45.602;11.904;2023-03-24T18:03:27;24.40;46.40
62575;DHT22;53112;45.602;11.904;2023-03-24T18:05:55;24.30;46.50
62575;DHT22;53112;45.602;11.904;2023-03-24T18:08:24;24.40;46.50
62575;DHT22;53112;45.602;11.904;2023-03-24T18:10:50;24.30;46.60
62575;DHT22;53112;45.602;11.904;2023-03-24T18:13:16;24.30;46.60
62575;DHT22;53112;45.602;11.904;2023-03-24T18:15:42;24.30;46.70
62575;DHT22;53112;45.602;11.904;2023-03-24T18:18:08;24.40;46.80
62575;DHT22;53112;45.602;11.904;2023-03-24T18:20:34;24.40;47.00
62575;DHT22;53112;45.602;11.904;2023-03-24T18:23:01;24.30;47.00
62575;DHT22;53112;45.602;11.904;2023-03-24T18:25:27;24.30;47.10
62575;DHT22;53112;45.602;11.904;2023-03-24T18:27:53;24.30;47.20
62575;DHT22;53112;45.602;11.904;2023-03-24T18:30:20;24.30;47.30
62575;DHT22;53112;45.602;11.904;2023-03-24T18:32:47;24.30;47.30
62575;DHT22;53112;45.602;11.904;2023-03-24T18:35:13;24.30;47.30
62575;DHT22;53112;45.602;11.904;2023-03-24T18:37:42;24.30;47.40
62575;DHT22;53112;45.602;11.904;2023-03-24T18:40:09;24.30;47.40
62575;DHT22;53112;45.602;11.904;2023-03-24T18:42:36;24.30;47.40
62575;DHT22;53112;45.602;11.904;2023-03-24T18:45:04;24.30;47.40
62575;DHT22;53112;45.602;11.904;2023-03-24T18:47:31;24.30;47.40